Terminal Aerodrome Forecast
Issued by NWS

Home | Current Version | Previous Version | Text Only | Print | Product List | Glossary On
Versions: 1 2 3 4 5 6 7 8 9 10 11 12 13 14 15 16 17 18 19 20 21 22 23
000
FTUS43 KFGF 230500
TAFBJI
TAF
KBJI 230534Z 2306/2406 00000KT P6SM BKN009
      TEMPO 2306/2310 1/4SM FG VV002
     FM231000 VRB06KT P6SM OVC009
      TEMPO 2310/2313 1/2SM FG
     FM231500 08007KT P6SM OVC040=

USA.gov is the U.S. government's official web portal to all federal, state and local government web resources and services.